sensor_id;sensor_type;location;lat;lon;timestamp;pressure;altitude;pressure_sealevel;temperature;humidity
73143;BME280;61343;53.694;9.988;2022-11-15T00:01:06;100863.13;;;6.39;95.59
73143;BME280;61343;53.694;9.988;2022-11-15T00:03:31;100864.31;;;6.37;95.61
73143;BME280;61343;53.694;9.988;2022-11-15T00:06:01;100859.47;;;6.40;95.04
73143;BME280;61343;53.694;9.988;2022-11-15T00:08:29;100859.09;;;6.43;95.18
73143;BME280;61343;53.694;9.988;2022-11-15T00:10:56;100865.78;;;6.39;95.03
73143;BME280;61343;53.694;9.988;2022-11-15T00:13:22;100863.47;;;6.22;95.53
73143;BME280;61343;53.694;9.988;2022-11-15T00:15:48;100871.19;;;6.31;95.96
73143;BME280;61343;53.694;9.988;2022-11-15T00:18:14;100863.28;;;6.23;96.13
73143;BME280;61343;53.694;9.988;2022-11-15T00:20:40;100860.00;;;6.21;96.68
73143;BME280;61343;53.694;9.988;2022-11-15T00:23:06;100869.25;;;6.25;95.91
73143;BME280;61343;53.694;9.988;2022-11-15T00:25:32;100860.44;;;6.25;95.97
73143;BME280;61343;53.694;9.988;2022-11-15T00:27:59;100854.50;;;6.23;95.66
73143;BME280;61343;53.694;9.988;2022-11-15T00:30:25;100858.34;;;6.20;95.66
73143;BME280;61343;53.694;9.988;2022-11-15T00:32:50;100866.28;;;6.20;95.48
73143;BME280;61343;53.694;9.988;2022-11-15T00:35:15;100858.63;;;6.25;95.76
73143;BME280;61343;53.694;9.988;2022-11-15T00:37:41;100859.25;;;6.27;95.81
73143;BME280;61343;53.694;9.988;2022-11-15T00:40:07;100864.19;;;6.15;95.84
73143;BME280;61343;53.694;9.988;2022-11-15T00:42:32;100862.53;;;6.14;96.22
73143;BME280;61343;53.694;9.988;2022-11-15T00:44:58;100857.78;;;6.10;96.57
73143;BME280;61343;53.694;9.988;2022-11-15T00:47:23;100861.91;;;6.12;96.29
73143;BME280;61343;53.694;9.988;2022-11-15T00:49:48;100852.94;;;6.13;96.17
73143;BME280;61343;53.694;9.988;2022-11-15T00:52:13;100859.44;;;6.11;96.39
73143;BME280;61343;53.694;9.988;2022-11-15T00:54:39;100846.59;;;6.14;96.41
73143;BME280;61343;53.694;9.988;2022-11-15T00:57:04;100852.00;;;6.06;96.99
73143;BME280;61343;53.694;9.988;2022-11-15T00:59:29;100848.53;;;6.06;96.76
73143;BME280;61343;53.694;9.988;2022-11-15T01:01:55;100865.84;;;6.02;96.56
73143;BME280;61343;53.694;9.988;2022-11-15T01:04:20;100852.84;;;6.07;96.83
73143;BME280;61343;53.694;9.988;2022-11-15T01:06:45;100855.13;;;5.95;97.26
73143;BME280;61343;53.694;9.988;2022-11-15T01:09:11;100853.53;;;5.86;97.14
73143;BME280;61343;53.694;9.988;2022-11-15T01:11:36;100861.97;;;5.90;97.80
73143;BME280;61343;53.694;9.988;2022-11-15T01:14:01;100850.34;;;5.91;97.24
73143;BME280;61343;53.694;9.988;2022-11-15T01:16:26;100850.53;;;5.89;97.53
73143;BME280;61343;53.694;9.988;2022-11-15T01:18:52;100849.09;;;5.79;97.90
73143;BME280;61343;53.694;9.988;2022-11-15T01:21:18;100843.56;;;5.88;98.16
73143;BME280;61343;53.694;9.988;2022-11-15T01:23:44;100845.06;;;5.83;97.99
73143;BME280;61343;53.694;9.988;2022-11-15T01:26:12;100838.44;;;5.87;97.81
73143;BME280;61343;53.694;9.988;2022-11-15T01:28:39;100836.44;;;5.89;97.42
73143;BME280;61343;53.694;9.988;2022-11-15T01:31:14;100834.97;;;5.86;97.58
73143;BME280;61343;53.694;9.988;2022-11-15T01:33:40;100832.81;;;5.82;97.71
73143;BME280;61343;53.694;9.988;2022-11-15T01:36:07;100828.31;;;5.82;97.45
73143;BME280;61343;53.694;9.988;2022-11-15T01:38:33;100826.22;;;5.78;97.83
73143;BME280;61343;53.694;9.988;2022-11-15T01:40:59;100829.31;;;5.67;97.89
73143;BME280;61343;53.694;9.988;2022-11-15T01:43:33;100832.03;;;5.58;98.09
73143;BME280;61343;53.694;9.988;2022-11-15T01:46:19;100825.72;;;5.59;98.65
73143;BME280;61343;53.694;9.988;2022-11-15T01:48:49;100826.72;;;5.58;98.12
73143;BME280;61343;53.694;9.988;2022-11-15T01:51:19;100834.16;;;5.63;98.51
73143;BME280;61343;53.694;9.988;2022-11-15T01:53:47;100823.66;;;5.70;97.97
73143;BME280;61343;53.694;9.988;2022-11-15T01:56:18;100818.34;;;5.70;97.69
73143;BME280;61343;53.694;9.988;2022-11-15T01:58:45;100814.13;;;5.60;97.82
73143;BME280;61343;53.694;9.988;2022-11-15T02:01:12;100821.97;;;5.54;98.02
73143;BME280;61343;53.694;9.988;2022-11-15T02:03:44;100824.41;;;5.55;98.00
73143;BME280;61343;53.694;9.988;2022-11-15T02:06:14;100821.41;;;5.58;98.04
73143;BME280;61343;53.694;9.988;2022-11-15T02:08:39;100805.41;;;5.52;98.25
73143;BME280;61343;53.694;9.988;2022-11-15T02:11:08;100798.56;;;5.57;97.85
73143;BME280;61343;53.694;9.988;2022-11-15T02:13:33;100797.53;;;5.58;97.70
73143;BME280;61343;53.694;9.988;2022-11-15T02:18:38;100800.09;;;5.52;97.25
73143;BME280;61343;53.694;9.988;2022-11-15T02:21:24;100796.53;;;5.59;96.97
73143;BME280;61343;53.694;9.988;2022-11-15T02:24:04;100792.34;;;5.65;97.16
73143;BME280;61343;53.694;9.988;2022-11-15T02:29:14;100793.13;;;5.51;97.13
73143;BME280;61343;53.694;9.988;2022-11-15T02:31:57;100789.66;;;5.50;97.47
73143;BME280;61343;53.694;9.988;2022-11-15T02:37:41;100789.31;;;5.53;97.31
73143;BME280;61343;53.694;9.988;2022-11-15T02:40:23;100792.19;;;5.44;97.11
73143;BME280;61343;53.694;9.988;2022-11-15T02:42:57;100783.72;;;5.48;96.44
73143;BME280;61343;53.694;9.988;2022-11-15T02:45:51;100786.25;;;5.42;96.83
73143;BME280;61343;53.694;9.988;2022-11-15T02:48:20;100782.25;;;5.46;96.50
73143;BME280;61343;53.694;9.988;2022-11-15T02:50:46;100780.03;;;5.49;96.09
73143;BME280;61343;53.694;9.988;2022-11-15T02:53:14;100781.91;;;5.49;96.24
73143;BME280;61343;53.694;9.988;2022-11-15T02:55:50;100776.56;;;5.34;97.01
73143;BME280;61343;53.694;9.988;2022-11-15T02:58:39;100778.09;;;5.43;96.56
73143;BME280;61343;53.694;9.988;2022-11-15T03:06:46;100769.06;;;5.52;95.45
73143;BME280;61343;53.694;9.988;2022-11-15T03:12:00;100776.41;;;5.50;95.34
73143;BME280;61343;53.694;9.988;2022-11-15T03:14:35;100782.41;;;5.44;94.96
73143;BME280;61343;53.694;9.988;2022-11-15T03:17:20;100785.44;;;5.41;95.23
73143;BME280;61343;53.694;9.988;2022-11-15T03:19:50;100784.06;;;5.45;95.51
73143;BME280;61343;53.694;9.988;2022-11-15T03:22:21;100777.75;;;5.46;95.11
73143;BME280;61343;53.694;9.988;2022-11-15T03:25:00;100780.75;;;5.43;94.72
73143;BME280;61343;53.694;9.988;2022-11-15T03:27:31;100780.41;;;5.46;95.70
73143;BME280;61343;53.694;9.988;2022-11-15T03:30:00;100782.53;;;5.51;95.29
73143;BME280;61343;53.694;9.988;2022-11-15T03:32:29;100774.38;;;5.52;95.42
73143;BME280;61343;53.694;9.988;2022-11-15T03:34:58;100778.81;;;5.37;95.90
73143;BME280;61343;53.694;9.988;2022-11-15T03:37:37;100774.41;;;5.30;96.48
73143;BME280;61343;53.694;9.988;2022-11-15T03:40:04;100771.25;;;5.34;96.67
73143;BME280;61343;53.694;9.988;2022-11-15T03:42:38;100775.88;;;5.32;96.55
73143;BME280;61343;53.694;9.988;2022-11-15T03:45:19;100779.00;;;5.36;96.71
73143;BME280;61343;53.694;9.988;2022-11-15T03:48:14;100776.09;;;5.31;96.46
73143;BME280;61343;53.694;9.988;2022-11-15T03:50:42;100773.94;;;5.26;97.12
73143;BME280;61343;53.694;9.988;2022-11-15T03:53:08;100772.25;;;5.33;97.04
73143;BME280;61343;53.694;9.988;2022-11-15T03:55:34;100767.78;;;5.34;96.68
73143;BME280;61343;53.694;9.988;2022-11-15T03:58:00;100770.06;;;5.37;97.02
73143;BME280;61343;53.694;9.988;2022-11-15T04:00:26;100766.94;;;5.33;97.17
73143;BME280;61343;53.694;9.988;2022-11-15T04:02:51;100770.94;;;5.29;97.00
73143;BME280;61343;53.694;9.988;2022-11-15T04:05:16;100770.88;;;5.37;97.00
73143;BME280;61343;53.694;9.988;2022-11-15T04:07:42;100767.56;;;5.35;97.26
73143;BME280;61343;53.694;9.988;2022-11-15T04:10:09;100778.19;;;5.35;97.16
73143;BME280;61343;53.694;9.988;2022-11-15T04:12:38;100779.66;;;5.38;96.85
73143;BME280;61343;53.694;9.988;2022-11-15T04:17:48;100765.88;;;5.42;96.29
73143;BME280;61343;53.694;9.988;2022-11-15T04:23:03;100762.97;;;5.29;97.38
73143;BME280;61343;53.694;9.988;2022-11-15T04:25:50;100760.56;;;5.42;97.00
73143;BME280;61343;53.694;9.988;2022-11-15T04:28:16;100770.97;;;5.44;96.25
73143;BME280;61343;53.694;9.988;2022-11-15T04:30:41;100768.03;;;5.39;95.18
73143;BME280;61343;53.694;9.988;2022-11-15T04:33:06;100771.59;;;5.31;95.90
73143;BME280;61343;53.694;9.988;2022-11-15T04:35:32;100774.34;;;5.38;95.57
73143;BME280;61343;53.694;9.988;2022-11-15T04:37:58;100777.94;;;5.45;95.42
73143;BME280;61343;53.694;9.988;2022-11-15T04:40:23;100778.69;;;5.53;95.66
73143;BME280;61343;53.694;9.988;2022-11-15T04:42:48;100777.78;;;5.61;94.67
73143;BME280;61343;53.694;9.988;2022-11-15T04:45:14;100779.63;;;5.60;94.83
73143;BME280;61343;53.694;9.988;2022-11-15T04:47:39;100778.59;;;5.61;95.01
73143;BME280;61343;53.694;9.988;2022-11-15T04:50:05;100788.13;;;5.71;94.68
73143;BME280;61343;53.694;9.988;2022-11-15T04:52:31;100780.53;;;5.68;94.99
73143;BME280;61343;53.694;9.988;2022-11-15T04:54:56;100777.53;;;5.71;95.47
73143;BME280;61343;53.694;9.988;2022-11-15T04:57:21;100777.63;;;5.77;95.63
73143;BME280;61343;53.694;9.988;2022-11-15T04:59:46;100782.56;;;5.80;96.04
73143;BME280;61343;53.694;9.988;2022-11-15T05:02:12;100771.72;;;5.90;96.00
73143;BME280;61343;53.694;9.988;2022-11-15T05:04:37;100778.41;;;6.00;95.91
73143;BME280;61343;53.694;9.988;2022-11-15T05:07:02;100774.56;;;6.03;95.60
73143;BME280;61343;53.694;9.988;2022-11-15T05:09:29;100780.53;;;6.05;95.91
73143;BME280;61343;53.694;9.988;2022-11-15T05:11:54;100764.22;;;6.08;96.17
73143;BME280;61343;53.694;9.988;2022-11-15T05:14:20;100760.19;;;6.12;95.48
73143;BME280;61343;53.694;9.988;2022-11-15T05:16:45;100766.88;;;6.08;96.05
73143;BME280;61343;53.694;9.988;2022-11-15T05:19:11;100768.63;;;6.01;96.06
73143;BME280;61343;53.694;9.988;2022-11-15T05:21:36;100756.06;;;6.09;95.74
73143;BME280;61343;53.694;9.988;2022-11-15T05:24:02;100760.38;;;6.10;95.82
73143;BME280;61343;53.694;9.988;2022-11-15T05:26:27;100750.75;;;6.09;95.20
73143;BME280;61343;53.694;9.988;2022-11-15T05:28:54;100756.16;;;6.16;94.98
73143;BME280;61343;53.694;9.988;2022-11-15T05:31:20;100759.19;;;6.13;95.32
73143;BME280;61343;53.694;9.988;2022-11-15T05:33:45;100758.72;;;6.09;95.19
73143;BME280;61343;53.694;9.988;2022-11-15T05:36:26;100757.78;;;6.17;95.77
73143;BME280;61343;53.694;9.988;2022-11-15T05:38:52;100746.81;;;6.20;95.70
73143;BME280;61343;53.694;9.988;2022-11-15T05:41:21;100751.13;;;6.21;95.56
73143;BME280;61343;53.694;9.988;2022-11-15T05:43:48;100752.13;;;6.20;95.90
73143;BME280;61343;53.694;9.988;2022-11-15T05:46:15;100757.78;;;6.17;96.93
73143;BME280;61343;53.694;9.988;2022-11-15T05:48:43;100746.44;;;6.23;96.49
73143;BME280;61343;53.694;9.988;2022-11-15T05:51:09;100759.91;;;6.22;96.56
73143;BME280;61343;53.694;9.988;2022-11-15T05:53:37;100754.22;;;6.25;97.02
73143;BME280;61343;53.694;9.988;2022-11-15T05:56:04;100753.41;;;6.24;97.04
73143;BME280;61343;53.694;9.988;2022-11-15T05:58:34;100748.56;;;6.28;97.37
73143;BME280;61343;53.694;9.988;2022-11-15T06:01:00;100758.97;;;6.29;97.59
73143;BME280;61343;53.694;9.988;2022-11-15T06:03:25;100756.31;;;6.29;97.77
73143;BME280;61343;53.694;9.988;2022-11-15T06:05:50;100754.13;;;6.33;97.85
73143;BME280;61343;53.694;9.988;2022-11-15T06:08:16;100758.44;;;6.34;98.32
73143;BME280;61343;53.694;9.988;2022-11-15T06:10:41;100755.22;;;6.38;97.95
73143;BME280;61343;53.694;9.988;2022-11-15T06:13:06;100754.00;;;6.41;97.96
73143;BME280;61343;53.694;9.988;2022-11-15T06:15:32;100758.16;;;6.43;97.87
73143;BME280;61343;53.694;9.988;2022-11-15T06:17:59;100761.19;;;6.40;98.04
73143;BME280;61343;53.694;9.988;2022-11-15T06:20:25;100769.88;;;6.34;97.80
73143;BME280;61343;53.694;9.988;2022-11-15T06:22:50;100774.81;;;6.37;98.15
73143;BME280;61343;53.694;9.988;2022-11-15T06:25:16;100775.19;;;6.34;98.24
73143;BME280;61343;53.694;9.988;2022-11-15T06:27:41;100769.53;;;6.37;98.48
73143;BME280;61343;53.694;9.988;2022-11-15T06:30:06;100772.16;;;6.37;98.07
73143;BME280;61343;53.694;9.988;2022-11-15T06:32:32;100769.53;;;6.37;97.88
73143;BME280;61343;53.694;9.988;2022-11-15T06:34:57;100770.78;;;6.41;98.08
73143;BME280;61343;53.694;9.988;2022-11-15T06:37:22;100769.56;;;6.44;98.22
73143;BME280;61343;53.694;9.988;2022-11-15T06:39:48;100770.88;;;6.48;97.59
73143;BME280;61343;53.694;9.988;2022-11-15T06:42:13;100786.34;;;6.44;97.96
73143;BME280;61343;53.694;9.988;2022-11-15T06:44:38;100774.09;;;6.43;98.15
73143;BME280;61343;53.694;9.988;2022-11-15T06:47:03;100779.81;;;6.47;98.30
73143;BME280;61343;53.694;9.988;2022-11-15T06:49:29;100779.03;;;6.46;97.78
73143;BME280;61343;53.694;9.988;2022-11-15T06:51:54;100782.56;;;6.53;97.85
73143;BME280;61343;53.694;9.988;2022-11-15T06:54:19;100790.53;;;6.53;97.59
73143;BME280;61343;53.694;9.988;2022-11-15T06:56:46;100781.13;;;6.51;98.00
73143;BME280;61343;53.694;9.988;2022-11-15T06:59:11;100778.47;;;6.51;97.94
73143;BME280;61343;53.694;9.988;2022-11-15T07:01:36;100777.25;;;6.53;97.87
73143;BME280;61343;53.694;9.988;2022-11-15T07:04:01;100781.00;;;6.59;98.09
73143;BME280;61343;53.694;9.988;2022-11-15T07:06:27;100788.81;;;6.60;98.14
73143;BME280;61343;53.694;9.988;2022-11-15T07:08:52;100788.22;;;6.65;97.54
73143;BME280;61343;53.694;9.988;2022-11-15T07:11:17;100795.38;;;6.64;97.88
73143;BME280;61343;53.694;9.988;2022-11-15T07:13:42;100794.75;;;6.62;97.40
73143;BME280;61343;53.694;9.988;2022-11-15T07:16:09;100800.88;;;6.63;97.90
73143;BME280;61343;53.694;9.988;2022-11-15T07:18:37;100801.34;;;6.66;97.75
73143;BME280;61343;53.694;9.988;2022-11-15T07:21:04;100802.81;;;6.69;97.32
73143;BME280;61343;53.694;9.988;2022-11-15T07:23:30;100806.75;;;6.73;97.82
73143;BME280;61343;53.694;9.988;2022-11-15T07:25:59;100802.59;;;6.70;97.04
73143;BME280;61343;53.694;9.988;2022-11-15T07:28:25;100801.47;;;6.80;97.26
73143;BME280;61343;53.694;9.988;2022-11-15T07:30:51;100799.66;;;6.80;97.28
73143;BME280;61343;53.694;9.988;2022-11-15T07:33:16;100805.78;;;6.81;97.06
73143;BME280;61343;53.694;9.988;2022-11-15T07:35:41;100805.16;;;6.79;97.28
73143;BME280;61343;53.694;9.988;2022-11-15T07:38:08;100799.84;;;6.79;97.09
73143;BME280;61343;53.694;9.988;2022-11-15T07:40:33;100809.75;;;6.85;97.42
73143;BME280;61343;53.694;9.988;2022-11-15T07:43:06;100803.00;;;6.89;96.99
73143;BME280;61343;53.694;9.988;2022-11-15T07:45:33;100804.53;;;6.98;96.80
73143;BME280;61343;53.694;9.988;2022-11-15T07:48:01;100804.00;;;7.02;96.73
73143;BME280;61343;53.694;9.988;2022-11-15T07:50:27;100799.47;;;7.03;97.08
73143;BME280;61343;53.694;9.988;2022-11-15T07:52:58;100808.22;;;6.97;96.75
73143;BME280;61343;53.694;9.988;2022-11-15T07:55:26;100802.41;;;7.08;96.51
73143;BME280;61343;53.694;9.988;2022-11-15T07:57:52;100812.47;;;7.12;96.06
73143;BME280;61343;53.694;9.988;2022-11-15T08:00:18;100805.25;;;7.06;96.43
73143;BME280;61343;53.694;9.988;2022-11-15T08:02:43;100803.41;;;7.07;96.17
73143;BME280;61343;53.694;9.988;2022-11-15T08:05:09;100799.31;;;7.04;96.67
73143;BME280;61343;53.694;9.988;2022-11-15T08:07:34;100789.56;;;7.11;96.50
73143;BME280;61343;53.694;9.988;2022-11-15T08:09:59;100799.81;;;7.14;96.49
73143;BME280;61343;53.694;9.988;2022-11-15T08:12:29;100793.78;;;7.27;96.52
73143;BME280;61343;53.694;9.988;2022-11-15T08:14:55;100799.09;;;7.27;95.67
73143;BME280;61343;53.694;9.988;2022-11-15T08:17:22;100787.97;;;7.17;96.18
73143;BME280;61343;53.694;9.988;2022-11-15T08:19:47;100790.19;;;7.13;96.85
73143;BME280;61343;53.694;9.988;2022-11-15T08:22:13;100794.69;;;7.13;96.68
73143;BME280;61343;53.694;9.988;2022-11-15T08:24:38;100788.78;;;7.17;96.22
73143;BME280;61343;53.694;9.988;2022-11-15T08:27:03;100785.94;;;7.19;96.21
73143;BME280;61343;53.694;9.988;2022-11-15T08:29:29;100789.28;;;7.27;96.40
73143;BME280;61343;53.694;9.988;2022-11-15T08:31:55;100786.31;;;7.37;96.33
73143;BME280;61343;53.694;9.988;2022-11-15T08:34:21;100792.50;;;7.44;95.31
73143;BME280;61343;53.694;9.988;2022-11-15T08:36:46;100795.16;;;7.44;95.63
73143;BME280;61343;53.694;9.988;2022-11-15T08:39:11;100805.44;;;7.47;95.11
73143;BME280;61343;53.694;9.988;2022-11-15T08:41:38;100797.44;;;7.47;94.91
73143;BME280;61343;53.694;9.988;2022-11-15T08:44:04;100794.84;;;7.54;95.17
73143;BME280;61343;53.694;9.988;2022-11-15T08:46:29;100798.09;;;7.49;94.47
73143;BME280;61343;53.694;9.988;2022-11-15T08:48:54;100800.09;;;7.47;94.88
73143;BME280;61343;53.694;9.988;2022-11-15T08:51:20;100794.41;;;7.50;95.18
73143;BME280;61343;53.694;9.988;2022-11-15T08:53:45;100799.72;;;7.50;95.49
73143;BME280;61343;53.694;9.988;2022-11-15T08:56:13;100793.63;;;7.56;95.16
73143;BME280;61343;53.694;9.988;2022-11-15T08:58:39;100803.66;;;7.54;95.09
73143;BME280;61343;53.694;9.988;2022-11-15T09:01:04;100799.34;;;7.53;95.19
73143;BME280;61343;53.694;9.988;2022-11-15T09:03:30;100806.06;;;7.49;95.59
73143;BME280;61343;53.694;9.988;2022-11-15T09:05:56;100802.66;;;7.55;95.81
73143;BME280;61343;53.694;9.988;2022-11-15T09:08:22;100811.13;;;7.44;95.85
73143;BME280;61343;53.694;9.988;2022-11-15T09:10:48;100808.75;;;7.49;95.44
73143;BME280;61343;53.694;9.988;2022-11-15T09:13:13;100803.88;;;7.53;95.28
73143;BME280;61343;53.694;9.988;2022-11-15T09:15:39;100808.53;;;7.51;95.45
73143;BME280;61343;53.694;9.988;2022-11-15T09:18:04;100809.97;;;7.53;95.63
73143;BME280;61343;53.694;9.988;2022-11-15T09:20:29;100798.19;;;7.62;95.40
73143;BME280;61343;53.694;9.988;2022-11-15T09:22:54;100797.81;;;7.65;95.15
73143;BME280;61343;53.694;9.988;2022-11-15T09:25:23;100784.56;;;7.72;94.95
73143;BME280;61343;53.694;9.988;2022-11-15T09:27:48;100794.59;;;7.76;94.73
73143;BME280;61343;53.694;9.988;2022-11-15T09:30:14;100795.47;;;7.83;94.70
73143;BME280;61343;53.694;9.988;2022-11-15T09:32:39;100795.72;;;7.88;94.72
73143;BME280;61343;53.694;9.988;2022-11-15T09:35:04;100799.59;;;7.86;94.74
73143;BME280;61343;53.694;9.988;2022-11-15T09:37:31;100789.88;;;8.00;94.50
73143;BME280;61343;53.694;9.988;2022-11-15T09:39:57;100795.97;;;7.94;93.91
73143;BME280;61343;53.694;9.988;2022-11-15T09:45:20;100793.78;;;8.04;93.68
73143;BME280;61343;53.694;9.988;2022-11-15T09:50:43;100793.66;;;8.18;93.59
73143;BME280;61343;53.694;9.988;2022-11-15T09:53:14;100799.03;;;8.25;93.49
73143;BME280;61343;53.694;9.988;2022-11-15T09:55:58;100799.03;;;8.25;93.59
73143;BME280;61343;53.694;9.988;2022-11-15T10:04:23;100795.88;;;8.43;93.19
73143;BME280;61343;53.694;9.988;2022-11-15T10:07:02;100797.03;;;8.33;92.94
73143;BME280;61343;53.694;9.988;2022-11-15T10:09:37;100793.41;;;8.41;92.78
73143;BME280;61343;53.694;9.988;2022-11-15T10:12:07;100790.88;;;8.33;92.90
73143;BME280;61343;53.694;9.988;2022-11-15T10:14:34;100787.59;;;8.31;93.10
73143;BME280;61343;53.694;9.988;2022-11-15T10:17:14;100789.06;;;8.33;93.29
73143;BME280;61343;53.694;9.988;2022-11-15T10:22:47;100782.53;;;8.43;93.28
73143;BME280;61343;53.694;9.988;2022-11-15T10:25:16;100784.63;;;8.47;93.30
73143;BME280;61343;53.694;9.988;2022-11-15T10:27:43;100787.09;;;8.55;93.12
73143;BME280;61343;53.694;9.988;2022-11-15T10:30:13;100780.72;;;8.56;92.67
73143;BME280;61343;53.694;9.988;2022-11-15T10:32:40;100786.13;;;8.69;92.61
73143;BME280;61343;53.694;9.988;2022-11-15T10:35:29;100780.78;;;8.69;92.65
73143;BME280;61343;53.694;9.988;2022-11-15T10:38:10;100772.63;;;8.71;92.88
73143;BME280;61343;53.694;9.988;2022-11-15T10:40:37;100764.22;;;8.74;92.31
73143;BME280;61343;53.694;9.988;2022-11-15T10:45:35;100761.56;;;8.74;92.50
73143;BME280;61343;53.694;9.988;2022-11-15T10:50:40;100753.94;;;8.77;92.37
73143;BME280;61343;53.694;9.988;2022-11-15T10:55:51;100754.78;;;8.84;92.36
73143;BME280;61343;53.694;9.988;2022-11-15T11:00:48;100745.59;;;8.93;92.55
73143;BME280;61343;53.694;9.988;2022-11-15T11:03:28;100750.94;;;9.00;92.16
73143;BME280;61343;53.694;9.988;2022-11-15T11:06:14;100754.63;;;9.06;92.15
73143;BME280;61343;53.694;9.988;2022-11-15T11:08:40;100757.72;;;9.09;91.98
73143;BME280;61343;53.694;9.988;2022-11-15T11:11:17;100742.75;;;9.15;91.62
73143;BME280;61343;53.694;9.988;2022-11-15T11:13:43;100737.41;;;9.15;92.16
73143;BME280;61343;53.694;9.988;2022-11-15T11:16:20;100732.88;;;9.22;92.08
73143;BME280;61343;53.694;9.988;2022-11-15T11:24:08;100723.66;;;9.37;91.63
73143;BME280;61343;53.694;9.988;2022-11-15T11:29:47;100725.69;;;9.42;91.40
73143;BME280;61343;53.694;9.988;2022-11-15T11:32:34;100728.16;;;9.50;91.52
73143;BME280;61343;53.694;9.988;2022-11-15T11:35:28;100721.38;;;9.54;91.51
73143;BME280;61343;53.694;9.988;2022-11-15T11:48:43;100704.88;;;9.83;91.13
73143;BME280;61343;53.694;9.988;2022-11-15T11:53:52;100698.28;;;9.92;90.54
73143;BME280;61343;53.694;9.988;2022-11-15T11:56:29;100697.69;;;9.90;90.61
73143;BME280;61343;53.694;9.988;2022-11-15T11:59:36;100690.28;;;9.92;90.98
73143;BME280;61343;53.694;9.988;2022-11-15T12:02:20;100692.72;;;10.00;90.61
73143;BME280;61343;53.694;9.988;2022-11-15T12:04:51;100689.00;;;10.01;90.47
73143;BME280;61343;53.694;9.988;2022-11-15T12:07:25;100688.00;;;10.02;90.36
73143;BME280;61343;53.694;9.988;2022-11-15T12:10:28;100684.47;;;10.08;90.72
73143;BME280;61343;53.694;9.988;2022-11-15T12:13:09;100687.34;;;10.07;90.51
73143;BME280;61343;53.694;9.988;2022-11-15T12:15:41;100692.50;;;10.08;90.31
73143;BME280;61343;53.694;9.988;2022-11-15T12:18:13;100682.81;;;10.07;89.90
73143;BME280;61343;53.694;9.988;2022-11-15T12:20:50;100671.31;;;10.14;90.17
73143;BME280;61343;53.694;9.988;2022-11-15T12:23:22;100672.56;;;10.18;90.33
73143;BME280;61343;53.694;9.988;2022-11-15T12:25:59;100678.06;;;10.23;90.00
73143;BME280;61343;53.694;9.988;2022-11-15T12:28:46;100669.19;;;10.29;89.55
73143;BME280;61343;53.694;9.988;2022-11-15T12:31:22;100670.00;;;10.36;89.08
73143;BME280;61343;53.694;9.988;2022-11-15T12:33:49;100662.75;;;10.43;88.63
73143;BME280;61343;53.694;9.988;2022-11-15T12:41:19;100668.53;;;10.40;89.08
73143;BME280;61343;53.694;9.988;2022-11-15T12:43:47;100663.97;;;10.47;88.83
73143;BME280;61343;53.694;9.988;2022-11-15T12:49:09;100655.09;;;10.53;88.66
73143;BME280;61343;53.694;9.988;2022-11-15T12:59:58;100659.38;;;10.54;88.69
73143;BME280;61343;53.694;9.988;2022-11-15T13:02:31;100660.59;;;10.58;88.05
73143;BME280;61343;53.694;9.988;2022-11-15T13:25:21;100628.88;;;11.17;86.20
73143;BME280;61343;53.694;9.988;2022-11-15T13:27:49;100631.38;;;11.12;86.19
73143;BME280;61343;53.694;9.988;2022-11-15T13:30:21;100621.66;;;11.18;86.17
73143;BME280;61343;53.694;9.988;2022-11-15T13:32:47;100627.66;;;11.13;86.22
73143;BME280;61343;53.694;9.988;2022-11-15T13:35:27;100620.25;;;11.15;85.93
73143;BME280;61343;53.694;9.988;2022-11-15T13:37:55;100613.25;;;11.14;86.39
73143;BME280;61343;53.694;9.988;2022-11-15T13:40:28;100608.72;;;11.15;86.28
73143;BME280;61343;53.694;9.988;2022-11-15T13:42:56;100610.78;;;11.13;86.36
73143;BME280;61343;53.694;9.988;2022-11-15T13:45:22;100610.19;;;11.11;86.50
73143;BME280;61343;53.694;9.988;2022-11-15T13:47:52;100615.78;;;11.09;86.40
73143;BME280;61343;53.694;9.988;2022-11-15T13:50:19;100600.16;;;11.06;86.32
73143;BME280;61343;53.694;9.988;2022-11-15T13:52:46;100597.03;;;11.09;86.51
73143;BME280;61343;53.694;9.988;2022-11-15T13:55:17;100585.06;;;11.12;86.52
73143;BME280;61343;53.694;9.988;2022-11-15T13:57:59;100569.97;;;11.17;86.36
73143;BME280;61343;53.694;9.988;2022-11-15T14:03:12;100579.22;;;11.22;86.08
73143;BME280;61343;53.694;9.988;2022-11-15T14:05:40;100587.84;;;11.24;86.19
73143;BME280;61343;53.694;9.988;2022-11-15T14:10:43;100578.91;;;11.30;85.88
73143;BME280;61343;53.694;9.988;2022-11-15T14:13:31;100577.72;;;11.26;85.79
73143;BME280;61343;53.694;9.988;2022-11-15T14:16:21;100572.34;;;11.26;86.06
73143;BME280;61343;53.694;9.988;2022-11-15T14:18:57;100584.91;;;11.25;85.80
73143;BME280;61343;53.694;9.988;2022-11-15T14:21:22;100593.47;;;11.15;86.46
73143;BME280;61343;53.694;9.988;2022-11-15T14:23:47;100576.53;;;11.22;86.31
73143;BME280;61343;53.694;9.988;2022-11-15T14:26:31;100577.50;;;11.27;86.01
73143;BME280;61343;53.694;9.988;2022-11-15T14:28:57;100573.78;;;11.28;86.20
73143;BME280;61343;53.694;9.988;2022-11-15T14:31:22;100570.75;;;11.25;85.73
73143;BME280;61343;53.694;9.988;2022-11-15T14:33:48;100572.41;;;11.19;86.14
73143;BME280;61343;53.694;9.988;2022-11-15T14:36:19;100568.06;;;11.25;86.38
73143;BME280;61343;53.694;9.988;2022-11-15T14:38:45;100562.72;;;11.25;86.08
73143;BME280;61343;53.694;9.988;2022-11-15T14:41:34;100576.53;;;11.22;86.22
73143;BME280;61343;53.694;9.988;2022-11-15T14:44:03;100574.22;;;11.07;86.74
73143;BME280;61343;53.694;9.988;2022-11-15T14:46:28;100580.34;;;11.07;86.87
73143;BME280;61343;53.694;9.988;2022-11-15T14:48:54;100578.22;;;10.98;87.18
73143;BME280;61343;53.694;9.988;2022-11-15T14:51:19;100581.31;;;10.95;87.55
73143;BME280;61343;53.694;9.988;2022-11-15T14:53:46;100584.78;;;10.95;87.25
73143;BME280;61343;53.694;9.988;2022-11-15T14:56:12;100592.06;;;10.88;87.75
73143;BME280;61343;53.694;9.988;2022-11-15T14:58:37;100592.28;;;10.87;87.83